Time;durP1;ratioP1;P1;durP2;ratioP2;P2;SDS_P1;SDS_P2;PMS_P1;PMS_P2;Temp;Humidity;BMP_temperature;BMP_pressure;BME280_temperature;BME280_humidity;BME280_pressure;Samples;Min_cycle;Max_cycle;Signal;HPM_P1;HPM_P2
2022/09/06 00:00:55;;;;;;;2.90;2.50;;;;;;;13.00;54.77;99587.30;88725;1273;22569;-76
2022/09/06 00:03:29;;;;;;;;;;;;;;;;;;;;;
2022/09/06 00:05:56;;;;;;;11.10;3.30;;;;;;;12.99;55.08;99587.86;88794;1271;22547;-76
2022/09/06 00:08:09;;;;;;;6.40;3.10;;;;;;;12.98;54.91;99580.86;88722;1274;22584;-74
2022/09/06 00:10:16;;;;;;;3.30;2.90;;;;;;;12.96;54.85;99573.55;88763;1271;99156;-75
2022/09/06 00:12:41;;;;;;;5.10;3.40;;;;;;;12.95;54.84;99574.30;88792;1274;25385;-75
2022/09/06 00:15:04;;;;;;;6.40;3.70;;;;;;;12.93;54.92;99569.97;88800;1273;25244;-76
2022/09/06 00:17:06;;;;;;;6.60;3.00;;;;;;;12.93;55.00;99567.16;88767;1274;98633;-75
2022/09/06 00:19:10;;;;;;;4.10;2.70;;;;;;;12.91;54.97;99563.02;88647;1274;22769;-76
2022/09/06 00:21:42;;;;;;;6.00;2.90;;;;;;;12.91;54.98;99559.34;88608;1274;26652;-77
2022/09/06 00:23:47;;;;;;;7.10;3.40;;;;;;;12.90;54.91;99558.84;88811;1271;22545;-75
2022/09/06 00:26:12;;;;;;;5.10;2.90;;;;;;;12.89;54.92;99559.58;88529;1274;23130;-75
2022/09/06 00:28:22;;;;;;;3.40;2.90;;;;;;;12.88;54.96;99562.48;88703;1271;99512;-75
2022/09/06 00:30:34;;;;;;;5.10;3.10;;;;;;;12.87;54.89;99564.61;88800;1276;22754;-78
2022/09/06 00:32:42;;;;;;;6.30;3.30;;;;;;;12.87;54.97;99564.43;88694;1274;24161;-77
2022/09/06 00:34:47;;;;;;;8.20;3.00;;;;;;;12.87;54.96;99566.91;88608;1274;98668;-75
2022/09/06 00:37:29;;;;;;;;;;;;;;;;;;;;;
2022/09/06 00:39:53;;;;;;;;;;;;;;;;;;;;;
2022/09/06 00:42:02;;;;;;;9.60;3.10;;;;;;;12.82;55.22;99562.95;88726;1274;22744;-76
2022/09/06 00:44:05;;;;;;;3.10;2.80;;;;;;;12.81;55.31;99563.52;88678;1273;22652;-76
2022/09/06 00:46:32;;;;;;;;;;;;;;;;;;;;;
2022/09/06 00:48:50;;;;;;;5.10;2.90;;;;;;;12.79;55.32;99565.35;88670;1274;22631;-76
2022/09/06 00:50:58;;;;;;;4.80;2.90;;;;;;;12.75;55.35;99561.86;88721;1274;25388;-76
2022/09/06 00:53:16;;;;;;;9.80;3.00;;;;;;;12.69;55.30;99563.35;88594;1273;99099;-77
2022/09/06 00:55:27;;;;;;;4.70;3.00;;;;;;;12.64;55.42;99563.60;88655;1274;22563;-76
2022/09/06 00:57:45;;;;;;;5.40;3.00;;;;;;;12.60;55.55;99566.41;88583;1273;98853;-76
2022/09/06 01:00:16;;;;;;;7.70;3.10;;;;;;;12.56;55.56;99567.12;88708;1274;23546;-75
2022/09/06 01:03:07;;;;;;;7.60;3.40;;;;;;;12.51;55.71;99571.25;88765;1274;25306;-76
2022/09/06 01:16:52;;;;;;;6.40;3.20;;;;;;;12.65;55.83;99571.99;86278;1312;558942;-78
2022/09/06 01:19:40;;;;;;;10.70;3.10;;;;;;;12.57;55.91;99570.25;87877;1292;22634;-80
2022/09/06 01:22:05;;;;;;;7.30;3.20;;;;;;;12.48;56.15;99566.11;87073;1287;97777;-79
2022/09/06 01:24:25;;;;;;;5.60;3.00;;;;;;;12.41;56.20;99566.75;88809;1279;22568;-79
2022/09/06 01:26:42;;;;;;;3.70;3.00;;;;;;;12.36;56.25;99565.58;88786;1279;23453;-78
2022/09/06 01:28:45;;;;;;;3.10;2.80;;;;;;;12.31;56.34;99561.77;88623;1279;98262;-79
2022/09/06 01:30:56;;;;;;;7.00;3.10;;;;;;;12.28;56.26;99557.00;89184;1281;26628;-78
2022/09/06 01:33:23;;;;;;;7.30;2.90;;;;;;;12.24;56.39;99556.29;89342;1279;22601;-78
2022/09/06 01:35:28;;;;;;;4.70;3.10;;;;;;;12.20;56.55;99554.52;88746;1279;22578;-79
2022/09/06 01:37:33;;;;;;;4.60;3.10;;;;;;;12.17;56.52;99555.71;89289;1278;25307;-79
2022/09/06 01:39:36;;;;;;;6.20;3.60;;;;;;;12.15;56.53;99551.92;88984;1281;98424;-79
2022/09/06 01:41:45;;;;;;;11.60;3.20;;;;;;;12.13;56.54;99549.73;88507;1282;22702;-79
2022/09/06 01:43:54;;;;;;;3.20;2.90;;;;;;;12.11;56.67;99548.92;88637;1281;22593;-80
2022/09/06 01:46:19;;;;;;;6.30;3.10;;;;;;;12.11;56.65;99552.11;89213;1279;97298;-78
2022/09/06 01:48:24;;;;;;;5.80;2.80;;;;;;;12.08;56.75;99552.39;89422;1279;22821;-78
2022/09/06 01:50:47;;;;;;;7.90;3.50;;;;;;;12.07;56.65;99550.50;88903;1279;22582;-77
2022/09/06 01:52:54;;;;;;;8.90;3.30;;;;;;;12.06;56.70;99549.68;89380;1279;97468;-79
2022/09/06 01:55:30;;;;;;;6.90;3.10;;;;;;;12.05;56.68;99550.96;89210;1279;22568;-79
2022/09/06 01:57:53;;;;;;;4.20;2.80;;;;;;;12.03;56.67;99549.80;89011;1281;98925;-79
2022/09/06 02:00:08;;;;;;;6.90;3.10;;;;;;;12.03;56.84;99547.21;88686;1279;22577;-78
2022/09/06 02:02:35;;;;;;;7.00;3.00;;;;;;;12.01;56.68;99543.05;89690;1279;25522;-80
2022/09/06 02:04:56;;;;;;;4.50;2.80;;;;;;;11.99;56.72;99542.23;89351;1279;99054;-79
2022/09/06 02:07:20;;;;;;;8.70;3.10;;;;;;;11.99;56.78;99544.56;89393;1278;24256;-78
2022/09/06 02:09:25;;;;;;;11.30;3.10;;;;;;;11.97;56.82;99542.34;89338;1279;22605;-80
2022/09/06 02:11:37;;;;;;;13.50;3.20;;;;;;;11.96;56.81;99546.07;89400;1279;22703;-80
2022/09/06 02:14:00;;;;;;;4.20;3.40;;;;;;;11.92;56.95;99538.67;89433;1280;22643;-80
2022/09/06 02:16:05;;;;;;;6.10;3.10;;;;;;;11.96;57.03;99542.40;89025;1281;98714;-80
2022/09/06 02:18:14;;;;;;;4.40;3.30;;;;;;;11.95;56.91;99541.56;88631;1279;22574;-81
2022/09/06 02:20:25;;;;;;;7.40;2.90;;;;;;;11.95;56.96;99542.45;88772;1279;22579;-79
2022/09/06 02:22:32;;;;;;;9.30;3.10;;;;;;;11.94;57.19;99543.88;88896;1279;98426;-78
2022/09/06 02:24:36;;;;;;;4.60;3.30;;;;;;;11.92;57.25;99540.77;89254;1281;22571;-80
2022/09/06 02:26:42;;;;;;;4.60;3.10;;;;;;;11.90;57.16;99542.10;89358;1279;23004;-79
2022/09/06 02:28:44;;;;;;;3.90;3.10;;;;;;;11.88;57.24;99543.76;88850;1279;98306;-78
2022/09/06 02:30:52;;;;;;;7.20;3.20;;;;;;;11.87;57.31;99544.02;88644;1278;24333;-79
2022/09/06 02:33:05;;;;;;;3.10;2.80;;;;;;;11.85;57.30;99540.90;89175;1279;22571;-79
2022/09/06 02:35:12;;;;;;;5.10;3.10;;;;;;;11.84;57.33;99535.67;89083;1279;98249;-79
2022/09/06 02:37:15;;;;;;;5.00;3.40;;;;;;;11.82;57.29;99532.27;88722;1279;25361;-78
2022/09/06 02:39:17;;;;;;;7.30;2.80;;;;;;;11.80;57.43;99530.04;88563;1278;23120;-79
2022/09/06 02:41:22;;;;;;;10.80;3.20;;;;;;;11.78;57.46;99531.88;88798;1279;98188;-79
2022/09/06 02:43:24;;;;;;;5.40;2.80;;;;;;;11.75;57.54;99532.89;88636;1278;22725;-78
2022/09/06 02:45:26;;;;;;;5.50;3.10;;;;;;;11.63;57.58;99512.46;88665;1278;24079;-78
2022/09/06 02:47:27;;;;;;;7.00;2.70;;;;;;;11.69;57.52;99530.84;88777;1277;98120;-78
2022/09/06 02:49:29;;;;;;;12.30;3.40;;;;;;;11.64;57.53;99525.64;88739;1277;23319;-79
2022/09/06 02:51:37;;;;;;;5.90;2.80;;;;;;;11.65;57.65;99531.04;89120;1277;98225;-78
2022/09/06 02:53:39;;;;;;;5.10;3.20;;;;;;;11.63;57.54;99528.48;89306;1277;22663;-79
2022/09/06 02:55:42;;;;;;;9.30;3.60;;;;;;;11.59;57.75;99528.11;89167;1276;22594;-79
2022/09/06 02:57:44;;;;;;;8.00;3.40;;;;;;;11.57;57.76;99524.70;88716;1276;98829;-79
2022/09/06 02:59:46;;;;;;;4.30;3.10;;;;;;;11.53;57.66;99526.46;88968;1278;23966;-80
2022/09/06 03:01:48;;;;;;;3.70;2.90;;;;;;;11.48;57.71;99525.61;88666;1277;22585;-79
2022/09/06 03:03:49;;;;;;;3.40;3.10;;;;;;;11.43;57.89;99522.67;89099;1276;98720;-78
2022/09/06 03:05:53;;;;;;;10.60;3.30;;;;;;;11.41;57.92;99526.45;88679;1278;22749;-77
2022/09/06 03:07:55;;;;;;;4.40;3.40;;;;;;;11.38;57.97;99526.38;89758;1276;22609;-79
2022/09/06 03:09:57;;;;;;;5.70;3.00;;;;;;;11.36;57.90;99524.20;89181;1277;98268;-78
2022/09/06 03:11:59;;;;;;;6.80;3.00;;;;;;;11.35;58.00;99522.48;89204;1276;26574;-79
2022/09/06 03:14:01;;;;;;;5.70;3.10;;;;;;;11.33;58.19;99519.20;89242;1276;22844;-79
2022/09/06 03:16:03;;;;;;;3.40;3.00;;;;;;;11.31;58.44;99520.00;88615;1277;98281;-79
2022/09/06 03:18:04;;;;;;;3.80;3.40;;;;;;;11.27;58.64;99519.13;89212;1279;22632;-78
2022/09/06 03:20:11;;;;;;;9.40;3.40;;;;;;;11.23;58.65;99520.85;88671;1276;23290;-79
2022/09/06 03:22:30;;;;;;;3.90;3.20;;;;;;;11.20;59.03;99517.65;88613;1277;98424;-79
2022/09/06 03:24:31;;;;;;;6.50;3.10;;;;;;;11.16;58.78;99518.72;88753;1276;22651;-79
2022/09/06 03:26:33;;;;;;;6.60;3.00;;;;;;;11.13;58.84;99518.81;88615;1278;24089;-78
2022/09/06 03:28:38;;;;;;;4.00;3.10;;;;;;;11.11;58.86;99519.28;88582;1278;98539;-78
2022/09/06 03:30:43;;;;;;;4.80;2.80;;;;;;;11.09;58.96;99518.82;88815;1277;23549;-79
2022/09/06 03:32:46;;;;;;;10.90;3.40;;;;;;;11.07;58.90;99520.29;88684;1277;25436;-79
2022/09/06 03:34:47;;;;;;;10.10;3.10;;;;;;;11.05;58.82;99518.96;88382;1277;98904;-79
2022/09/06 03:36:49;;;;;;;3.20;2.80;;;;;;;11.03;58.92;99518.14;88636;1278;24339;-78
2022/09/06 03:38:52;;;;;;;8.10;3.20;;;;;;;11.02;59.15;99516.27;88654;1277;22728;-78
2022/09/06 03:40:54;;;;;;;6.80;3.00;;;;;;;10.99;59.29;99513.58;88830;1277;99297;-78
2022/09/06 03:42:56;;;;;;;6.70;3.30;;;;;;;10.94;59.48;99512.19;89145;1278;22751;-79
2022/09/06 03:44:58;;;;;;;4.40;3.00;;;;;;;10.94;59.41;99516.96;89193;1278;22563;-79
2022/09/06 03:46:59;;;;;;;13.40;3.50;;;;;;;10.93;59.35;99516.64;88769;1276;98475;-79
2022/09/06 03:49:01;;;;;;;4.60;3.30;;;;;;;10.93;59.45;99517.38;89313;1278;22578;-81
2022/09/06 03:51:03;;;;;;;7.40;3.30;;;;;;;10.90;59.23;99513.42;89303;1277;22628;-79
2022/09/06 03:53:05;;;;;;;7.70;3.70;;;;;;;10.89;59.14;99513.66;88427;1279;98534;-80
2022/09/06 03:55:07;;;;;;;6.30;3.50;;;;;;;10.87;59.27;99514.27;88603;1278;23994;-79
2022/09/06 03:57:09;;;;;;;17.90;3.80;;;;;;;10.85;59.30;99513.08;88647;1278;22563;-77
2022/09/06 03:59:10;;;;;;;5.00;3.70;;;;;;;10.84;59.35;99514.93;88481;1279;98831;-78
2022/09/06 04:01:12;;;;;;;7.20;3.20;;;;;;;10.82;59.28;99517.48;88499;1279;23504;-79
2022/09/06 04:03:18;;;;;;;6.90;3.70;;;;;;;10.80;59.46;99511.53;88607;1277;22568;-79
2022/09/06 04:05:20;;;;;;;6.70;3.10;;;;;;;10.79;59.44;99513.88;88387;1279;98349;-79
2022/09/06 04:07:22;;;;;;;11.70;3.30;;;;;;;10.78;59.64;99507.41;88767;1278;22640;-78
2022/09/06 04:09:23;;;;;;;9.00;3.10;;;;;;;10.75;59.61;99511.40;88725;1276;26041;-79
2022/09/06 04:11:27;;;;;;;5.20;3.60;;;;;;;10.73;59.61;99514.64;88541;1279;100024;-79
2022/09/06 04:13:29;;;;;;;4.30;3.20;;;;;;;10.69;59.51;99512.67;89183;1279;24285;-80
2022/09/06 04:15:32;;;;;;;12.00;3.30;;;;;;;10.68;59.52;99518.01;88630;1279;99038;-79
2022/09/06 04:17:33;;;;;;;6.40;3.40;;;;;;;10.68;59.88;99519.94;88617;1279;25545;-80
2022/09/06 04:19:37;;;;;;;8.40;3.20;;;;;;;10.68;59.90;99516.95;88794;1279;25422;-79
2022/09/06 04:21:39;;;;;;;7.70;3.60;;;;;;;10.68;59.80;99521.52;88487;1279;98954;-78
2022/09/06 04:23:41;;;;;;;8.60;3.80;;;;;;;10.69;59.94;99524.81;88474;1278;22983;-78
2022/09/06 04:25:52;;;;;;;14.20;3.30;;;;;;;10.70;59.83;99523.37;88603;1279;22608;-78
2022/09/06 04:27:53;;;;;;;70.70;6.40;;;;;;;10.71;59.99;99518.75;89342;1279;98704;-79
2022/09/06 04:29:55;;;;;;;71.10;5.90;;;;;;;10.71;59.82;99522.27;89256;1277;22630;-79
2022/09/06 04:31:57;;;;;;;49.10;4.60;;;;;;;10.71;60.03;99518.21;89646;1279;22831;-79
2022/09/06 04:33:59;;;;;;;35.40;3.80;;;;;;;10.71;59.98;99519.46;88963;1279;98926;-79
2022/09/06 04:36:03;;;;;;;11.00;3.70;;;;;;;10.70;59.94;99521.42;88580;1278;22765;-79
2022/09/06 04:38:04;;;;;;;11.20;3.10;;;;;;;10.70;59.99;99521.08;88956;1279;24394;-79
2022/09/06 04:40:06;;;;;;;9.20;3.60;;;;;;;10.70;59.94;99526.20;88648;1278;98935;-78
2022/09/06 04:42:08;;;;;;;18.40;4.20;;;;;;;10.69;60.22;99527.64;89131;1279;25383;-79
2022/09/06 04:44:10;;;;;;;8.20;3.70;;;;;;;10.69;60.06;99532.02;88518;1279;23472;-80
2022/09/06 04:46:30;;;;;;;13.50;4.80;;;;;;;10.68;60.10;99531.70;88534;1279;99178;-79
2022/09/06 04:48:32;;;;;;;16.80;4.30;;;;;;;10.67;60.21;99531.90;89138;1279;22563;-80
2022/09/06 04:50:53;;;;;;;12.60;4.30;;;;;;;10.68;60.43;99531.53;88748;1279;23209;-80
2022/09/06 04:52:55;;;;;;;14.80;4.60;;;;;;;10.69;60.47;99530.11;88782;1277;98322;-79
2022/09/06 04:54:56;;;;;;;29.70;5.00;;;;;;;10.70;60.19;99531.11;88665;1279;22772;-79
2022/09/06 04:56:58;;;;;;;14.50;4.80;;;;;;;10.71;60.61;99530.34;88979;1279;25353;-80
2022/09/06 04:59:00;;;;;;;17.80;4.20;;;;;;;10.73;60.34;99528.88;88679;1279;98812;-80
2022/09/06 05:01:01;;;;;;;20.80;4.20;;;;;;;10.74;60.52;99525.49;89374;1278;23768;-81
2022/09/06 05:03:04;;;;;;;11.40;3.50;;;;;;;10.76;60.59;99526.12;89297;1278;23249;-80
2022/09/06 05:05:06;;;;;;;18.70;4.30;;;;;;;10.79;60.71;99524.25;89215;1277;99072;-79
2022/09/06 05:07:08;;;;;;;20.30;4.00;;;;;;;10.82;60.50;99527.29;88692;1279;22704;-81
2022/09/06 05:09:10;;;;;;;10.20;4.70;;;;;;;10.88;60.47;99525.48;89145;1279;25692;-81
2022/09/06 05:11:11;;;;;;;29.70;5.30;;;;;;;10.93;60.44;99521.94;88581;1281;99272;-80
2022/09/06 05:13:13;;;;;;;13.60;4.30;;;;;;;10.99;60.38;99522.72;89329;1278;22692;-81
2022/09/06 05:15:16;;;;;;;10.50;3.70;;;;;;;11.05;60.43;99522.14;89318;1279;22619;-81
2022/09/06 05:17:19;;;;;;;18.80;4.10;;;;;;;11.10;60.49;99522.30;88534;1277;99652;-81
2022/09/06 05:19:21;;;;;;;14.50;4.00;;;;;;;11.15;60.31;99524.37;89310;1279;23561;-81
2022/09/06 05:21:22;;;;;;;6.90;3.70;;;;;;;11.19;60.39;99520.14;89300;1278;26083;-80
2022/09/06 05:23:25;;;;;;;16.60;3.60;;;;;;;11.24;60.41;99525.55;89287;1279;97689;-81
2022/09/06 05:25:27;;;;;;;15.70;5.00;;;;;;;11.29;60.34;99525.88;89290;1279;22609;-80
2022/09/06 05:27:29;;;;;;;32.70;4.00;;;;;;;11.34;60.17;99523.91;88888;1276;24303;-80
2022/09/06 05:29:30;;;;;;;14.20;3.90;;;;;;;11.38;60.24;99526.39;88873;1277;22629;-81
2022/09/06 05:31:33;;;;;;;20.30;4.20;;;;;;;11.44;60.41;99531.79;88796;1279;25273;-79
2022/09/06 05:33:35;;;;;;;31.70;4.80;;;;;;;11.49;60.23;99532.27;88899;1279;100249;-80
2022/09/06 05:35:37;;;;;;;39.90;5.00;;;;;;;11.53;60.34;99534.18;89219;1279;22589;-81
2022/09/06 05:37:39;;;;;;;27.90;5.00;;;;;;;11.59;60.41;99535.50;89365;1276;22555;-80
2022/09/06 05:39:41;;;;;;;30.90;4.90;;;;;;;11.64;60.23;99533.19;89272;1279;98192;-79
2022/09/06 05:41:43;;;;;;;26.00;4.40;;;;;;;11.68;60.23;99540.04;89344;1278;22580;-80
2022/09/06 05:43:45;;;;;;;28.00;5.20;;;;;;;11.71;60.31;99540.10;89171;1279;25706;-79
2022/09/06 05:45:47;;;;;;;15.40;3.90;;;;;;;11.74;60.35;99543.65;88545;1279;99017;-81
2022/09/06 05:47:48;;;;;;;9.40;4.40;;;;;;;11.79;60.32;99547.70;88783;1279;24833;-81
2022/09/06 05:49:50;;;;;;;21.50;5.00;;;;;;;11.84;60.25;99547.83;88882;1277;22801;-79
2022/09/06 05:51:52;;;;;;;26.90;5.10;;;;;;;11.89;60.25;99546.56;89757;1279;98636;-79
2022/09/06 05:53:54;;;;;;;46.10;5.70;;;;;;;11.94;60.30;99547.73;89414;1277;24301;-81
2022/09/06 05:55:56;;;;;;;64.50;6.40;;;;;;;11.98;60.22;99545.80;89301;1276;22570;-81
2022/09/06 05:57:57;;;;;;;44.40;5.60;;;;;;;12.01;60.12;99540.39;89307;1276;99069;-80
2022/09/06 05:59:59;;;;;;;20.50;4.40;;;;;;;12.04;60.23;99543.63;88685;1278;25954;-79
2022/09/06 06:02:00;;;;;;;26.50;5.00;;;;;;;12.06;60.21;99541.23;88714;1279;22557;-79
2022/09/06 06:04:04;;;;;;;22.80;5.20;;;;;;;12.08;60.28;99538.69;88684;1276;98808;-78
2022/09/06 06:06:06;;;;;;;37.60;5.80;;;;;;;12.09;60.27;99541.25;88727;1278;22680;-80
2022/09/06 06:08:08;;;;;;;35.80;6.60;;;;;;;12.12;60.29;99538.54;89327;1278;24239;-79
2022/09/06 06:10:09;;;;;;;20.40;5.80;;;;;;;12.14;60.22;99544.42;88818;1276;98913;-79
2022/09/06 06:12:11;;;;;;;30.50;5.70;;;;;;;12.15;60.34;99546.63;88770;1277;22554;-80
2022/09/06 06:14:13;;;;;;;41.90;5.90;;;;;;;12.20;60.40;99548.88;89215;1279;23300;-81
2022/09/06 06:16:17;;;;;;;42.30;5.50;;;;;;;12.26;60.45;99548.41;89166;1276;98860;-80
2022/09/06 06:18:19;;;;;;;40.40;6.10;;;;;;;12.32;60.24;99550.10;88736;1277;22574;-79
2022/09/06 06:20:20;;;;;;;53.30;7.80;;;;;;;12.41;60.45;99548.61;88592;1279;25470;-78
2022/09/06 06:22:22;;;;;;;43.50;7.40;;;;;;;12.49;60.25;99546.86;88621;1279;97882;-79
2022/09/06 06:24:24;;;;;;;26.10;6.40;;;;;;;12.57;60.51;99544.02;89195;1276;23392;-80
2022/09/06 06:26:30;;;;;;;61.60;7.40;;;;;;;12.67;60.25;99544.77;88827;1277;22796;-79
2022/09/06 06:28:34;;;;;;;24.40;5.40;;;;;;;12.76;60.28;99540.80;88945;1279;97953;-80
2022/09/06 06:30:36;;;;;;;37.00;6.50;;;;;;;12.85;60.20;99540.71;89166;1279;22699;-80
2022/09/06 06:32:39;;;;;;;25.60;5.90;;;;;;;12.93;60.04;99540.02;88881;1276;23265;-80
2022/09/06 06:34:41;;;;;;;35.70;5.60;;;;;;;12.99;60.08;99538.31;88926;1276;98017;-80
2022/09/06 06:36:45;;;;;;;39.90;6.40;;;;;;;13.04;60.18;99533.98;89058;1279;22833;-81
2022/09/06 06:38:49;;;;;;;30.90;5.80;;;;;;;13.10;59.88;99536.16;89138;1279;22703;-79
2022/09/06 06:40:51;;;;;;;28.40;5.50;;;;;;;13.17;60.21;99537.08;89295;1277;98964;-81
2022/09/06 06:42:54;;;;;;;13.90;4.70;;;;;;;13.25;60.13;99536.63;89340;1279;22553;-80
2022/09/06 06:44:56;;;;;;;13.90;4.30;;;;;;;13.35;60.03;99537.76;89207;1278;22572;-79
2022/09/06 06:47:00;;;;;;;29.20;4.90;;;;;;;13.44;59.95;99533.96;88669;1279;98272;-79
2022/09/06 06:49:03;;;;;;;21.20;4.60;;;;;;;13.53;59.92;99537.05;88608;1279;22694;-78
2022/09/06 06:51:05;;;;;;;7.70;4.40;;;;;;;13.60;59.65;99536.67;88537;1279;22575;-80
2022/09/06 06:53:07;;;;;;;19.20;4.50;;;;;;;13.68;59.96;99540.16;88407;1279;99120;-78
2022/09/06 06:55:08;;;;;;;14.90;4.00;;;;;;;13.77;59.81;99542.50;88414;1279;22633;-80
2022/09/06 06:57:11;;;;;;;13.10;4.60;;;;;;;13.86;59.75;99544.53;88682;1276;24361;-79
2022/09/06 06:59:13;;;;;;;10.40;3.90;;;;;;;13.93;59.50;99548.04;88692;1279;99193;-80
2022/09/06 07:01:16;;;;;;;20.10;4.70;;;;;;;14.02;59.78;99548.95;88537;1280;25491;-79
2022/09/06 07:03:18;;;;;;;14.00;4.20;;;;;;;14.10;59.28;99549.41;88415;1277;22871;-79
2022/09/06 07:05:25;;;;;;;7.00;3.80;;;;;;;14.21;59.46;99548.15;88535;1279;99425;-79
2022/09/06 07:07:27;;;;;;;7.90;4.70;;;;;;;14.33;59.36;99551.21;88836;1276;22862;-79
2022/09/06 07:09:29;;;;;;;7.20;4.00;;;;;;;14.43;59.26;99550.99;89294;1276;26802;-78
2022/09/06 07:11:31;;;;;;;7.00;3.80;;;;;;;14.52;59.06;99547.14;88503;1280;100146;-80
2022/09/06 07:13:34;;;;;;;10.70;4.10;;;;;;;14.62;58.89;99546.63;89215;1278;22577;-79
2022/09/06 07:15:36;;;;;;;13.50;3.80;;;;;;;14.70;58.91;99545.13;88952;1281;23203;-79
2022/09/06 07:17:38;;;;;;;13.20;4.60;;;;;;;14.81;58.98;99544.15;88977;1281;22733;-79
2022/09/06 07:19:40;;;;;;;21.50;4.50;;;;;;;14.92;58.62;99541.80;88741;1279;23575;-78
2022/09/06 07:21:41;;;;;;;16.70;4.40;;;;;;;15.01;58.41;99541.29;88784;1279;97907;-80
2022/09/06 07:23:44;;;;;;;9.80;3.80;;;;;;;15.09;58.32;99542.04;88609;1279;22811;-78
2022/09/06 07:25:46;;;;;;;27.60;5.10;;;;;;;15.19;58.44;99541.12;88895;1279;25634;-79
2022/09/06 07:27:54;;;;;;;18.40;4.80;;;;;;;15.29;58.13;99544.24;88863;1278;98953;-80
2022/09/06 07:29:56;;;;;;;6.70;4.00;;;;;;;15.36;58.16;99545.09;89334;1277;25333;-79
2022/09/06 07:31:59;;;;;;;17.70;4.60;;;;;;;15.44;58.15;99546.55;89153;1279;25064;-78
2022/09/06 07:34:03;;;;;;;17.70;5.30;;;;;;;15.52;58.17;99552.45;88776;1279;99029;-78
2022/09/06 07:36:08;;;;;;;13.20;4.80;;;;;;;15.64;58.06;99552.99;88980;1278;22578;-79
2022/09/06 07:38:09;;;;;;;10.00;4.60;;;;;;;15.75;58.00;99550.59;88942;1279;23982;-77
2022/09/06 07:40:11;;;;;;;7.60;3.90;;;;;;;15.84;57.99;99549.01;88855;1279;98833;-79
2022/09/06 07:42:15;;;;;;;13.60;4.60;;;;;;;15.98;57.93;99549.95;88953;1279;22591;-79
2022/09/06 07:44:16;;;;;;;19.30;5.00;;;;;;;16.08;57.91;99553.59;88761;1281;23103;-79
2022/09/06 07:46:19;;;;;;;17.70;5.10;;;;;;;16.14;57.72;99556.74;88921;1278;98783;-79
2022/09/06 07:48:21;;;;;;;10.40;4.40;;;;;;;16.22;57.51;99556.44;88805;1279;25593;-78
2022/09/06 07:50:24;;;;;;;12.20;4.90;;;;;;;16.31;57.24;99556.91;88875;1279;25953;-79
2022/09/06 07:52:26;;;;;;;8.70;4.10;;;;;;;16.37;57.15;99552.13;88853;1279;99352;-79
2022/09/06 07:54:29;;;;;;;13.90;5.20;;;;;;;16.45;57.28;99555.13;89019;1279;22899;-80
2022/09/06 07:56:31;;;;;;;14.10;4.70;;;;;;;16.59;57.30;99553.22;89318;1279;25324;-80
2022/09/06 07:58:34;;;;;;;19.20;4.60;;;;;;;16.74;57.06;99554.05;88781;1282;97704;-79
2022/09/06 08:00:37;;;;;;;29.50;5.00;;;;;;;16.81;57.00;99549.52;89430;1279;22579;-81
2022/09/06 08:02:39;;;;;;;17.80;4.40;;;;;;;16.94;57.12;99550.64;89357;1278;25479;-81
2022/09/06 08:04:44;;;;;;;12.30;4.40;;;;;;;17.04;56.87;99549.81;89343;1279;98845;-80
2022/09/06 08:06:48;;;;;;;28.60;5.20;;;;;;;17.08;56.64;99544.92;89690;1279;22975;-79
2022/09/06 08:08:50;;;;;;;23.40;4.70;;;;;;;17.12;56.72;99544.83;89421;1279;22682;-79
2022/09/06 08:10:52;;;;;;;39.40;4.60;;;;;;;17.22;56.69;99546.35;89407;1278;97705;-79
2022/09/06 08:12:54;;;;;;;7.30;4.20;;;;;;;17.27;56.40;99546.91;89463;1279;22816;-81
2022/09/06 08:14:57;;;;;;;12.20;4.10;;;;;;;17.29;56.06;99547.48;89333;1281;22650;-80
2022/09/06 08:16:59;;;;;;;28.90;4.10;;;;;;;17.28;56.13;99544.70;89307;1279;98865;-79
2022/09/06 08:19:04;;;;;;;14.80;3.80;;;;;;;17.31;56.16;99544.11;89372;1279;22552;-81
2022/09/06 08:21:10;;;;;;;9.10;3.60;;;;;;;17.35;56.12;99543.85;89434;1279;23312;-79
2022/09/06 08:23:13;;;;;;;28.30;4.20;;;;;;;17.42;56.07;99541.83;89232;1279;99146;-82
2022/09/06 08:25:15;;;;;;;30.40;4.00;;;;;;;17.43;55.74;99539.63;89419;1279;22578;-79
2022/09/06 08:27:17;;;;;;;18.80;3.80;;;;;;;17.51;55.48;99542.98;89504;1279;22582;-80
2022/09/06 08:29:19;;;;;;;7.10;3.80;;;;;;;17.53;55.33;99539.64;89301;1279;97714;-80
2022/09/06 08:31:21;;;;;;;16.50;3.80;;;;;;;17.56;55.42;99540.71;89478;1278;24403;-80
2022/09/06 08:33:28;;;;;;;22.20;3.60;;;;;;;17.65;55.39;99536.69;89376;1279;23704;-79
2022/09/06 08:35:30;;;;;;;14.60;3.20;;;;;;;17.78;55.28;99532.64;88751;1279;97943;-79
2022/09/06 08:37:32;;;;;;;8.90;3.40;;;;;;;17.92;55.27;99532.72;88905;1279;25385;-79
2022/09/06 08:39:33;;;;;;;20.00;3.30;;;;;;;18.06;54.70;99530.16;88933;1279;22542;-79
2022/09/06 08:41:51;;;;;;;13.00;3.80;;;;;;;18.18;54.95;99528.08;88704;1278;98877;-78
2022/09/06 08:44:01;;;;;;;9.20;3.40;;;;;;;18.32;54.86;99528.84;88842;1279;23011;-78
2022/09/06 08:46:07;;;;;;;24.00;3.20;;;;;;;18.43;54.49;99533.05;88845;1279;97803;-79
2022/09/06 08:48:12;;;;;;;14.30;3.30;;;;;;;18.48;54.57;99528.38;88721;1281;22864;-79
2022/09/06 08:50:14;;;;;;;13.50;2.80;;;;;;;18.59;54.29;99532.83;89217;1277;23975;-79
2022/09/06 08:52:55;;;;;;;20.40;3.20;;;;;;;18.68;54.03;99529.67;88709;1279;98684;-80
2022/09/06 08:55:12;;;;;;;20.20;2.70;;;;;;;18.76;53.64;99527.29;89428;1279;23917;-81
2022/09/06 08:57:24;;;;;;;19.30;3.90;;;;;;;18.83;53.11;99532.30;89528;1278;22566;-79
2022/09/06 08:59:28;;;;;;;12.90;2.90;;;;;;;18.86;53.03;99528.31;89241;1278;98935;-81
2022/09/06 09:02:01;;;;;;;21.50;3.20;;;;;;;18.92;53.20;99526.36;88980;1279;22579;-80
2022/09/06 09:04:11;;;;;;;5.70;3.40;;;;;;;19.00;53.01;99525.38;88849;1276;98470;-79
2022/09/06 09:06:16;;;;;;;6.30;2.30;;;;;;;19.04;52.64;99521.32;89161;1278;22556;-80
2022/09/06 09:08:31;;;;;;;19.60;2.60;;;;;;;19.06;52.64;99525.10;89406;1279;25391;-79
2022/09/06 09:10:43;;;;;;;9.80;2.50;;;;;;;19.18;53.06;99518.85;89196;1279;98961;-80
2022/09/06 09:12:47;;;;;;;4.60;2.50;;;;;;;19.28;52.76;99518.84;89076;1279;24571;-79
2022/09/06 09:14:58;;;;;;;11.40;3.60;;;;;;;19.28;52.30;99518.35;89427;1278;22576;-80
2022/09/06 09:17:15;;;;;;;5.80;2.40;;;;;;;19.31;52.63;99514.88;89374;1278;99054;-80
2022/09/06 09:19:17;;;;;;;10.20;2.40;;;;;;;19.40;52.50;99511.89;89586;1276;26062;-79
2022/09/06 09:21:24;;;;;;;9.30;3.00;;;;;;;19.46;52.01;99508.01;89113;1276;22949;-78
2022/09/06 09:23:28;;;;;;;24.90;2.90;;;;;;;19.46;51.79;99504.05;89064;1276;98901;-81
2022/09/06 09:25:35;;;;;;;24.30;3.10;;;;;;;19.50;51.70;99501.80;89128;1276;57612;-80
2022/09/06 09:27:38;;;;;;;1.20;0.90;;;;;;;19.61;51.92;99503.13;88805;1279;22748;-80
2022/09/06 09:30:10;;;;;;;11.20;2.20;;;;;;;19.64;49.82;99501.31;88745;1280;98727;-80
2022/09/06 09:32:12;;;;;;;14.00;1.70;;;;;;;19.64;50.69;99499.73;89291;1275;90021;-78
2022/09/06 09:34:33;;;;;;;4.50;2.10;;;;;;;19.70;50.78;99495.50;88403;1278;99606;-75
2022/09/06 09:36:36;;;;;;;16.10;2.30;;;;;;;19.77;50.31;99493.35;88403;1276;25374;-76
2022/09/06 09:38:48;;;;;;;21.30;3.30;;;;;;;19.85;50.55;99492.73;88670;1278;25273;-78
2022/09/06 09:40:52;;;;;;;12.70;2.60;;;;;;;19.96;50.42;99487.96;88485;1280;99292;-77
2022/09/06 09:43:07;;;;;;;10.50;2.40;;;;;;;20.06;50.00;99488.06;88314;1279;26540;-78
2022/09/06 09:45:29;;;;;;;11.10;2.20;;;;;;;20.11;49.77;99482.36;88428;1279;23613;-77
2022/09/06 09:47:33;;;;;;;12.80;2.30;;;;;;;20.14;49.47;99478.13;88382;1276;98813;-78
2022/09/06 09:49:35;;;;;;;12.60;2.30;;;;;;;20.20;49.53;99472.63;88325;1278;22542;-78
2022/09/06 09:51:46;;;;;;;32.40;2.90;;;;;;;20.31;49.69;99469.48;88516;1277;22584;-76
2022/09/06 09:53:56;;;;;;;5.50;1.90;;;;;;;20.47;49.21;99460.92;88447;1279;22714;-76
2022/09/06 09:55:59;;;;;;;5.70;1.20;;;;;;;20.61;48.54;99459.38;88508;1276;23225;-75
2022/09/06 09:58:01;;;;;;;3.10;1.90;;;;;;;20.65;47.82;99459.83;88812;1279;99753;-74
2022/09/06 10:00:11;;;;;;;2.00;1.20;;;;;;;20.68;47.36;99451.19;88404;1278;22756;-75
2022/09/06 10:02:26;;;;;;;8.20;1.80;;;;;;;20.66;47.47;99452.75;88365;1280;22715;-78
2022/09/06 10:04:44;;;;;;;19.10;2.00;;;;;;;20.79;47.79;99447.95;88659;1276;98760;-77
2022/09/06 10:06:46;;;;;;;3.20;1.60;;;;;;;20.85;47.77;99450.81;88526;1279;24132;-76
2022/09/06 10:08:49;;;;;;;2.20;1.80;;;;;;;20.77;47.32;99448.10;88160;1279;25680;-79